Latest Weather Observations for Blackall

IDQ60801

Issued at 8:31 pm EST Wednesday 7 December 2016 (issued every 30 minutes, with the page automatically refreshed every 10 minutes)

About weather observations | Map of weather stations | Latest weather observations for QLD | Other Formats
Station Details ID: 036034 Name: BLACKALL AIRPORT Lat: -24.43 Lon: 145.43 Height: 281.3 m
Data from the previous 72 hours. | See also: Recent months at Blackall
Date/Time
EST
Temp
°C
App
Temp
°C
Dew
Point
°C
Rel
Hum
%
Delta-T
°C
Wind Press
QNH
hPa
Press
MSL
hPa
Rain since
9am
mm
Dir  Spd
km/h
Gust
km/h
Spd
kts
Gust
kts
07/08:00pm 32.7 31.6 15.2 34 11.0 SSE 15 20 8 11 1010.2 1008.2 0.0
07/07:30pm 33.9 33.2 14.4 31 12.1 S 11 17 6 9 1010.1 1008.1 0.0
07/07:00pm 34.2 34.2 15.1 31 12.0 S 9 13 5 7 1009.9 1007.9 0.0
07/06:30pm 34.5 34.6 15.4 32 12.1 SSE 9 13 5 7 1009.4 1007.4 0.0
07/06:00pm 34.8 34.0 15.2 31 12.4 SSE 13 17 7 9 1009.3 1007.3 0.0
07/05:30pm 34.8 33.5 15.7 32 12.1 SE 17 22 9 12 1009.0 1007.0 0.0
07/05:00pm 34.5 32.7 15.4 32 12.1 SSE 19 24 10 13 1009.0 1007.0 0.0
07/04:30pm 34.6 32.0 16.0 33 11.9 S 24 37 13 20 1008.9 1006.9 0.0
07/04:16pm 35.1 32.5 14.9 29 12.7 SSW 22 37 12 20 1008.9 1006.9 0.0
07/04:00pm 39.4 38.3 13.0 21 16.4 WNW 11 19 6 10 1008.7 1006.7 0.0
07/03:30pm 38.6 37.7 13.8 23 15.5 WNW 11 17 6 9 1008.9 1006.9 0.0
07/03:00pm 39.0 38.2 14.1 23 15.7 N 11 19 6 10 1009.5 1007.5 0.0
07/02:30pm 38.5 37.0 14.3 23 15.3 NNW 15 24 8 13 1009.9 1007.9 0.0
07/02:00pm 38.8 37.2 13.9 22 15.6 NW 15 28 8 15 1010.3 1008.4 0.0
07/01:30pm 38.6 36.8 14.4 24 15.3 WNW 17 24 9 13 1010.7 1008.7 0.0
07/01:00pm 37.9 36.6 13.8 23 15.1 NW 13 22 7 12 1011.2 1009.2 0.0
07/12:30pm 37.9 36.6 13.8 23 15.1 NW 13 22 7 12 1011.4 1009.4 0.0
07/12:00pm 37.1 36.0 14.4 26 14.3 NNW 13 30 7 16 1011.7 1009.7 0.0
07/11:30am 36.9 36.0 14.8 26 14.0 N 13 20 7 11 1012.0 1010.0 0.0
07/11:00am 35.7 33.7 14.9 29 13.1 NNE 19 30 10 16 1012.4 1010.4 0.0
07/10:30am 36.3 34.7 15.9 29 13.1 N 19 30 10 16 1012.7 1010.7 0.0
07/10:00am 34.5 32.5 15.4 32 12.1 N 20 30 11 16 1013.1 1011.1 0.0
07/09:30am 34.0 32.6 15.5 33 11.7 NNE 17 24 9 13 1013.4 1011.4 0.0
07/09:00am 32.3 30.8 15.3 35 10.6 NNE 17 24 9 13 1013.5 1011.6 0.0
07/08:30am 31.4 30.3 15.4 38 10.0 NNE 15 20 8 11 1013.6 1011.7 0.0
07/08:00am 31.2 30.4 16.0 40 9.6 ENE 15 22 8 12 1013.4 1011.4 0.0
07/07:30am 30.2 29.7 16.9 44 8.5 SE 15 22 8 12 1013.4 1011.4 0.0
07/07:00am 28.8 28.1 17.3 49 7.3 SE 17 22 9 12 1013.3 1011.3 0.0
07/06:30am 28.0 27.4 17.5 52 6.7 SSE 17 24 9 13 1013.0 1011.0 0.0
07/06:00am 27.4 27.1 17.3 54 6.4 SSE 15 20 8 11 1012.8 1010.8 0.0
07/05:30am 27.1 27.1 17.3 55 6.2 S 13 17 7 9 1012.5 1010.5 0.0
07/05:00am 27.5 27.8 17.1 53 6.6 SE 11 17 6 9 1011.8 1009.8 0.0
07/04:30am 27.9 27.1 17.1 51 6.8 SE 17 20 9 11 1011.7 1009.7 0.0
07/04:00am 28.5 27.5 16.7 48 7.5 SSE 17 24 9 13 1011.4 1009.4 0.0
07/03:30am 29.0 28.3 16.5 46 7.9 SE 15 22 8 12 1011.0 1009.0 0.0
07/03:00am 29.5 28.2 16.7 46 8.1 SE 19 32 10 17 1010.7 1008.7 0.0
07/02:30am 30.0 28.2 16.1 43 8.7 SE 20 30 11 16 1010.5 1008.5 0.0
07/02:00am 30.5 27.7 15.4 40 9.4 SE 24 35 13 19 1010.5 1008.5 0.0
07/01:30am 30.9 29.0 15.3 38 9.7 SE 19 32 10 17 1010.6 1008.6 0.0
07/01:00am 31.8 28.5 14.9 36 10.5 SE 26 37 14 20 1010.7 1008.7 0.0
07/12:30am 32.9 30.2 13.5 30 11.9 SSE 20 33 11 18 1010.9 1008.9 0.0
07/12:00am 34.1 29.8 11.9 26 13.3 SSE 26 37 14 20 1010.9 1008.9 0.0
 
Date/Time
EST
Temp
°C
App
Temp
°C
Dew
Point
°C
Rel
Hum
%
Delta-T
°C
Wind Press
QNH
hPa
Press
MSL
hPa
Rain since
9am
mm
Dir  Spd
km/h
Gust
km/h
Spd
kts
Gust
kts
06/11:30pm 34.7 30.3 11.8 25 13.7 SSW 26 46 14 25 1010.5 1008.5 0.0
06/11:28pm 34.4 29.9 11.5 25 13.7 SW 26 46 14 25 1010.3 1008.4 0.0
06/11:00pm 33.5 31.6 11.9 27 12.9 NNE 13 19 7 10 1009.7 1007.7 0.0
06/10:30pm 33.3 31.0 11.8 27 12.8 NNE 15 19 8 10 1009.6 1007.6 0.0
06/10:00pm 33.2 31.3 11.7 27 12.8 NNE 13 17 7 9 1009.7 1007.7 0.0
06/09:30pm 33.1 31.7 11.0 26 13.0 NNE 9 15 5 8 1009.6 1007.6 0.0
06/09:00pm 34.0 32.3 11.2 25 13.5 N 11 13 6 7 1009.5 1007.5 0.0
06/08:30pm 34.8 32.9 10.6 23 14.3 N 11 15 6 8 1009.4 1007.4 0.0
06/08:00pm 34.8 33.0 9.3 21 14.8 N 9 11 5 6 1009.3 1007.3 0.0
06/07:30pm 35.9 33.9 8.7 19 15.7 N 9 11 5 6 1009.0 1007.0 0.0
06/07:00pm 38.0 35.6 8.7 17 17.1 N 11 15 6 8 1008.5 1006.5 0.0
06/06:30pm 39.5 36.8 9.0 16 17.9 N 13 22 7 12 1008.3 1006.3 0.0
06/06:00pm 40.8 38.9 9.1 15 18.8 NW 9 13 5 7 1008.2 1006.2 0.0
06/05:30pm 41.1 38.6 8.3 14 19.2 NW 11 19 6 10 1008.3 1006.3 0.0
06/05:00pm 41.4 38.6 8.5 14 19.4 N 13 22 7 12 1008.3 1006.3 0.0
06/04:30pm 41.3 38.5 8.5 14 19.3 N 13 22 7 12 1008.3 1006.3 0.0
06/04:00pm 41.9 39.6 8.9 14 19.6 NNW 11 22 6 12 1008.6 1006.6 0.0
06/03:30pm 41.3 39.3 8.5 14 19.3 NNW 9 20 5 11 1009.0 1007.0 0.0
06/03:00pm 40.8 39.3 9.1 15 18.8 NW 7 19 4 10 1009.4 1007.4 0.0
06/02:30pm 40.6 37.5 8.9 15 18.7 N 15 24 8 13 1009.9 1007.9 0.0
06/02:00pm 41.2 38.5 10.4 16 18.6 NNE 15 24 8 13 1010.3 1008.4 0.0
06/01:30pm 41.2 38.9 10.4 16 18.6 NNE 13 22 7 12 1011.0 1009.0 0.0
06/01:00pm 39.9 37.9 10.2 17 17.8 W 11 24 6 13 1011.6 1009.6 0.0
06/12:30pm 40.0 37.9 11.2 18 17.5 NNE 13 24 7 13 1012.1 1010.1 0.0
06/12:00pm 39.5 36.9 10.8 18 17.3 NW 15 20 8 11 1012.6 1010.6 0.0
06/11:30am 38.4 35.4 10.7 19 16.6 NNW 17 28 9 15 1013.1 1011.1 0.0
06/11:00am 38.9 37.2 12.6 21 16.2 N 13 22 7 12 1013.6 1011.7 0.0
06/10:30am 36.9 35.1 11.0 21 15.5 NNW 11 22 6 12 1014.0 1012.1 0.0
06/10:00am 36.3 34.8 11.9 23 14.8 NW 11 20 6 11 1014.4 1012.4 0.0
06/09:30am 35.2 33.2 11.6 24 14.1 NW 13 22 7 12 1014.6 1012.6 0.0
06/09:00am 34.0 31.7 11.8 26 13.3 NW 15 24 8 13 1014.7 1012.7 0.0
06/08:30am 33.9 33.1 11.7 26 13.3 WNW 7 13 4 7 1014.9 1012.9 0.0
06/08:00am 32.3 31.6 11.5 28 12.3 NNW 6 9 3 5 1015.0 1013.0 0.0
06/07:30am 31.3 30.5 11.1 29 11.8 S 6 9 3 5 1014.8 1012.8 0.0
06/07:00am 30.0 28.3 12.4 34 10.5 S 13 22 7 12 1014.6 1012.6 0.0
06/06:30am 28.5 28.2 12.8 38 9.3 SE 6 7 3 4 1013.6 1011.7 0.0
06/06:00am 26.1 26.9 12.5 42 8.0 CALM 0 0 0 0 1012.9 1010.9 0.0
06/05:30am 26.4 25.7 12.1 41 8.3 N 7 9 4 5 1012.3 1010.3 0.0
06/05:00am 25.8 25.0 11.6 41 8.2 N 7 9 4 5 1011.7 1009.7 0.0
06/04:30am 26.3 25.4 11.2 38 8.7 NE 7 9 4 5 1011.3 1009.3 0.0
06/04:00am 28.6 27.0 11.6 34 9.9 N 11 15 6 8 1010.8 1008.8 0.0
06/03:30am 27.9 26.3 11.5 36 9.5 N 11 17 6 9 1010.3 1008.4 0.0
06/03:00am 27.7 26.4 11.3 36 9.5 NNE 9 11 5 6 1010.0 1008.0 0.0
06/02:30am 26.7 25.9 11.2 38 8.9 N 6 7 3 4 1009.9 1007.9 0.0
06/02:00am 26.9 26.0 10.6 36 9.3 N 6 7 3 4 1010.0 1008.0 0.0
06/01:30am 28.0 27.0 11.1 35 9.8 NNE 7 9 4 5 1010.1 1008.1 0.0
06/01:00am 28.0 27.1 10.7 34 9.9 NNE 6 9 3 5 1010.3 1008.4 0.0
06/12:30am 29.3 27.5 10.9 32 10.6 NNE 11 15 6 8 1010.5 1008.5 0.0
06/12:00am 29.7 28.3 10.8 31 10.9 NE 9 13 5 7 1010.8 1008.8 0.0
 
Date/Time
EST
Temp
°C
App
Temp
°C
Dew
Point
°C
Rel
Hum
%
Delta-T
°C
Wind Press
QNH
hPa
Press
MSL
hPa
Rain since
9am
mm
Dir  Spd
km/h
Gust
km/h
Spd
kts
Gust
kts
05/11:30pm 29.8 28.8 10.9 31 11.0 NNE 7 9 4 5 1010.9 1008.9 0.0
05/11:00pm 29.5 29.0 10.6 31 10.9 N 4 7 2 4 1011.0 1009.0 0.0
05/10:30pm 30.1 28.8 10.1 29 11.5 NE 7 9 4 5 1011.0 1009.0 0.0
05/10:00pm 31.3 29.7 10.1 27 12.2 N 9 11 5 6 1011.0 1009.0 0.0
05/09:30pm 31.9 30.8 10.0 26 12.6 N 6 9 3 5 1010.9 1008.9 0.0
05/09:00pm 33.0 31.3 9.7 24 13.5 N 9 11 5 6 1010.6 1008.6 0.0
05/08:30pm 34.1 31.7 10.0 23 14.0 NNE 13 17 7 9 1010.5 1008.5 0.0
05/08:00pm 34.9 32.9 10.0 22 14.6 NNE 11 13 6 7 1010.3 1008.4 0.0
05/07:30pm 36.0 33.8 9.5 20 15.4 NNE 11 17 6 9 1010.1 1008.1 0.0
05/07:00pm 37.1 34.7 8.8 18 16.4 N 11 13 6 7 1009.8 1007.8 0.0
05/06:30pm 38.8 35.8 7.5 15 17.9 N 13 17 7 9 1009.6 1007.6 0.0
05/06:00pm 40.1 37.8 7.5 14 18.8 NW 9 13 5 7 1009.4 1007.4 0.0
05/05:30pm 40.3 38.2 6.6 13 19.2 NE 7 19 4 10 1009.4 1007.4 0.0
05/05:00pm 41.2 38.9 7.3 13 19.6 N 9 17 5 9 1009.3 1007.3 0.0
05/04:30pm 41.5 39.5 6.4 12 20.0 SW 6 11 3 6 1009.4 1007.4 0.0
05/04:00pm 41.8 38.2 6.6 12 20.2 NNW 15 20 8 11 1009.6 1007.6 0.0
05/03:30pm 41.0 39.0 7.1 13 19.5 N 7 17 4 9 1009.7 1007.7 0.0
05/03:00pm 40.7 38.3 6.9 13 19.4 NW 9 15 5 8 1010.1 1008.1 0.0
05/02:30pm 40.4 37.4 7.8 14 18.9 N 13 22 7 12 1010.3 1008.4 0.0
05/02:00pm 40.9 38.0 8.1 14 19.1 NNW 13 30 7 16 1010.8 1008.8 0.0
05/01:30pm 40.2 36.8 7.6 14 18.8 NW 15 32 8 17 1011.2 1009.2 0.0
05/01:00pm 39.4 35.3 8.0 15 18.2 NNW 19 28 10 15 1011.8 1009.8 0.0
05/12:30pm 39.4 35.7 8.0 15 18.2 NW 17 26 9 14 1012.2 1010.2 0.0
05/12:00pm 39.4 35.4 8.9 16 17.9 NNW 20 28 11 15 1012.7 1010.7 0.0
05/11:30am 38.0 33.5 8.7 17 17.0 N 22 33 12 18 1013.2 1011.2 0.0
05/11:00am 38.4 34.8 9.9 18 16.9 NW 19 35 10 19 1013.7 1011.8 0.0
05/10:30am 37.8 33.9 9.4 18 16.7 NNW 20 30 11 16 1014.0 1012.1 0.0
05/10:00am 36.3 32.3 9.0 19 15.8 NNW 20 30 11 16 1014.3 1012.3 0.0
05/09:30am 36.3 32.3 9.0 19 15.8 NW 20 30 11 16 1014.4 1012.4 0.0
05/09:00am 35.0 31.1 9.4 21 14.8 NNW 20 35 11 19 1014.5 1012.5 0.0
05/08:30am 33.5 29.8 9.5 23 13.8 NNW 19 26 10 14 1014.6 1012.6 0.0
05/08:00am 33.6 30.7 10.9 25 13.4 NW 17 26 9 14 1014.7 1012.7 0.0
05/07:30am 31.4 28.3 10.2 27 12.2 NNW 17 24 9 13 1014.6 1012.6 0.0
05/07:00am 30.1 29.2 10.6 30 11.3 NW 6 11 3 6 1014.3 1012.3 0.0
05/06:30am 28.3 28.0 11.4 35 9.8 NNE 4 7 2 4 1013.5 1011.6 0.0
05/06:00am 26.7 24.9 10.8 37 9.1 NNE 11 15 6 8 1012.7 1010.7 0.0
05/05:30am 24.6 23.5 10.8 42 7.8 NNE 7 11 4 6 1012.1 1010.1 0.0
05/05:00am 26.0 24.8 10.2 37 8.9 N 7 9 4 5 1011.6 1009.6 0.0
05/04:30am 27.1 25.1 10.3 35 9.5 N 11 13 6 7 1011.2 1009.2 0.0
05/04:00am 28.4 26.1 10.6 33 10.2 N 13 17 7 9 1010.9 1008.9 0.0
05/03:30am 27.8 25.8 10.1 33 10.0 N 11 13 6 7 1010.6 1008.6 0.0
05/03:00am 28.4 26.4 10.1 32 10.4 N 11 15 6 8 1010.5 1008.5 0.0
05/02:30am 28.7 26.3 9.9 31 10.7 N 13 15 7 8 1010.6 1008.6 0.0
05/02:00am 27.2 25.2 10.0 34 9.7 N 11 13 6 7 1010.5 1008.5 0.0
05/01:30am 26.4 24.6 9.3 34 9.5 NNE 9 11 5 6 1010.7 1008.7 0.0
05/01:00am 26.8 25.3 9.2 33 9.8 NNE 7 9 4 5 1010.8 1008.8 0.0
05/12:30am 27.6 25.7 9.0 31 10.3 NNE 9 9 5 5 1011.2 1009.2 0.0
05/12:00am 28.3 26.0 9.1 30 10.7 NNE 11 17 6 9 1011.4 1009.4 0.0
 
Date/Time
EST
Temp
°C
App
Temp
°C
Dew
Point
°C
Rel
Hum
%
Delta-T
°C
Wind Press
QNH
hPa
Press
MSL
hPa
Rain since
9am
mm
Dir  Spd
km/h
Gust
km/h
Spd
kts
Gust
kts
04/11:30pm 28.5 27.1 8.7 29 11.0 NNE 6 7 3 4 1011.5 1009.5 0.0
04/11:00pm 28.9 27.3 8.6 28 11.3 NNE 7 9 4 5 1011.7 1009.7 0.0
04/10:30pm 29.2 27.7 8.3 27 11.6 NNE 6 7 3 4 1011.7 1009.7 0.0
04/10:00pm 30.1 28.3 7.9 25 12.3 NNE 7 9 4 5 1011.6 1009.6 0.0
04/09:30pm 30.8 29.2 7.9 24 12.7 NNE 6 7 3 4 1011.5 1009.5 0.0
04/09:00pm 31.8 30.0 8.1 23 13.3 N 7 9 4 5 1011.4 1009.4 0.0

Other Formats:

Comma delimited format used in spreadsheet applications
http://www.bom.gov.au/fwo/IDQ60801/IDQ60801.95351.axf

JavaScript Object Notation format (JSON) in row-major order
http://www.bom.gov.au/fwo/IDQ60801/IDQ60801.95351.json